Terminal Aerodrome Forecast
Issued by NWS Wichita, KS

Home | Current Version | Previous Version | Graphics & Text | Print | Product List | Glossary On
Versions: 1 2 3 4 5 6 7 8 9 10 11 12 13 14 15 16 17 18 19 20 21 22 23 24 25 26
000
FTUS43 KICT 180722 AAB
TAFICT
TAF AMD
KICT 180722Z 1807/1906 09005KT 1 1/2SM -SN BR OVC005
     FM181200 03007KT 1/2SM FG BKN007
     FM181800 02007KT 4SM BR SCT007 BKN015
     FM182100 02005KT 5SM BR BKN015=

USA.gov is the U.S. government's official web portal to all federal, state and local government web resources and services.